Wetterdaten: Woche 27.08.12 - 02.09.12 (KW35)
Datum Zeit Temperatur Luftfeuchte Luftdruck Niederschlag Windrichtung Sonnenschein Solar Wind
27.08.2012 00:00 12,7 C 86 % 1020,8 hPa 0,0 l/m N 0,00 h 0 W/m 1,2 km/h (1 Bft)
27.08.2012 01:00 11,3 C 91 % 1020,8 hPa 0,0 l/m W 0,00 h 0 W/m 3,2 km/h (1 Bft)
27.08.2012 02:00 11,2 C 92 % 1020,9 hPa 0,0 l/m N 0,00 h 0 W/m 2,4 km/h (1 Bft)
27.08.2012 03:00 10,2 C 95 % 1021,0 hPa 0,0 l/m N 0,00 h 0 W/m 0,7 km/h (0 Bft)
27.08.2012 04:00 9,5 C 96 % 1021,1 hPa 0,0 l/m N 0,00 h 0 W/m 0,0 km/h (0 Bft)
27.08.2012 05:00 9,0 C 97 % 1021,3 hPa 0,0 l/m N 0,00 h 0 W/m 0,1 km/h (0 Bft)
27.08.2012 06:00 8,6 C 97 % 1021,5 hPa 0,0 l/m N 0,00 h 9 W/m 0,1 km/h (0 Bft)
27.08.2012 07:00 9,7 C 98 % 1021,8 hPa 0,0 l/m N 0,17 h 67 W/m 0,0 km/h (0 Bft)
27.08.2012 08:00 12,4 C 91 % 1022,0 hPa 0,0 l/m N 1,00 h 238 W/m 0,0 km/h (0 Bft)
27.08.2012 09:00 14,8 C 82 % 1021,9 hPa 0,0 l/m N 1,00 h 416 W/m 0,0 km/h (0 Bft)
27.08.2012 10:00 16,9 C 69 % 1021,7 hPa 0,0 l/m S-SO 1,00 h 569 W/m 3,9 km/h (1 Bft)
27.08.2012 11:00 18,4 C 56 % 1021,3 hPa 0,0 l/m O-NO 1,00 h 704 W/m 10,1 km/h (2 Bft)
27.08.2012 12:00 19,8 C 49 % 1020,7 hPa 0,0 l/m O-SO 1,00 h 786 W/m 11,8 km/h (2 Bft)
27.08.2012 13:00 20,5 C 46 % 1020,0 hPa 0,0 l/m O 1,00 h 815 W/m 14,5 km/h (3 Bft)
27.08.2012 14:00 20,9 C 44 % 1019,5 hPa 0,0 l/m O-SO 1,00 h 790 W/m 17,7 km/h (3 Bft)
27.08.2012 15:00 21,7 C 44 % 1018,9 hPa 0,0 l/m O-SO 1,00 h 714 W/m 16,5 km/h (3 Bft)
27.08.2012 16:00 21,8 C 42 % 1018,5 hPa 0,0 l/m O 1,00 h 602 W/m 14,6 km/h (3 Bft)
27.08.2012 17:00 21,8 C 43 % 1018,1 hPa 0,0 l/m O 1,00 h 452 W/m 12,2 km/h (2 Bft)
27.08.2012 18:00 21,2 C 46 % 1017,5 hPa 0,0 l/m O 1,00 h 272 W/m 12,9 km/h (3 Bft)
27.08.2012 19:00 19,7 C 52 % 1017,2 hPa 0,0 l/m O 0,17 h 32 W/m 7,2 km/h (2 Bft)
27.08.2012 20:00 16,2 C 71 % 1017,4 hPa 0,0 l/m N 0,00 h 6 W/m 0,7 km/h (0 Bft)
27.08.2012 21:00 14,2 C 78 % 1017,5 hPa 0,0 l/m N 0,00 h 0 W/m 0,0 km/h (0 Bft)
27.08.2012 22:00 13,6 C 80 % 1017,4 hPa 0,0 l/m N 0,00 h 0 W/m 1,9 km/h (1 Bft)
27.08.2012 23:00 13,0 C 82 % 1017,2 hPa 0,0 l/m N 0,00 h 0 W/m 1,6 km/h (1 Bft)
28.08.2012 00:00 12,1 C 88 % 1017,1 hPa 0,0 l/m N 0,00 h 0 W/m 0,1 km/h (0 Bft)
28.08.2012 01:00 11,1 C 92 % 1016,8 hPa 0,0 l/m N 0,00 h 0 W/m 0,0 km/h (0 Bft)
28.08.2012 02:00 10,5 C 94 % 1016,4 hPa 0,0 l/m N 0,00 h 0 W/m 0,0 km/h (0 Bft)
28.08.2012 03:00 9,9 C 95 % 1016,1 hPa 0,0 l/m N 0,00 h 0 W/m 0,0 km/h (0 Bft)
28.08.2012 04:00 9,4 C 96 % 1015,9 hPa 0,0 l/m N 0,00 h 0 W/m 0,0 km/h (0 Bft)
28.08.2012 05:00 9,1 C 96 % 1016,0 hPa 0,0 l/m N 0,00 h 0 W/m 0,0 km/h (0 Bft)
28.08.2012 06:00 8,5 C 96 % 1016,3 hPa 0,0 l/m N 0,08 h 9 W/m 0,3 km/h (0 Bft)
28.08.2012 07:00 9,8 C 97 % 1016,4 hPa 0,0 l/m N 0,00 h 59 W/m 0,0 km/h (0 Bft)
28.08.2012 08:00 12,5 C 91 % 1016,7 hPa 0,0 l/m N 0,92 h 228 W/m 0,0 km/h (0 Bft)
28.08.2012 09:00 17,0 C 84 % 1016,6 hPa 0,0 l/m S-SO 1,00 h 406 W/m 5,4 km/h (1 Bft)
28.08.2012 10:00 19,2 C 76 % 1016,8 hPa 0,0 l/m S 0,92 h 513 W/m 8,6 km/h (2 Bft)
28.08.2012 11:00 21,7 C 65 % 1016,8 hPa 0,0 l/m W-SW 1,00 h 686 W/m 18,8 km/h (3 Bft)
28.08.2012 12:00 23,7 C 55 % 1017,0 hPa 0,0 l/m W-SW 1,00 h 759 W/m 20,2 km/h (4 Bft)
28.08.2012 13:00 24,8 C 52 % 1016,9 hPa 0,0 l/m W-SW 1,00 h 726 W/m 19,8 km/h (4 Bft)
28.08.2012 14:00 25,3 C 52 % 1017,0 hPa 0,0 l/m W 0,83 h 632 W/m 16,5 km/h (3 Bft)
28.08.2012 15:00 24,7 C 52 % 1017,2 hPa 0,0 l/m W 0,33 h 340 W/m 15,6 km/h (3 Bft)
28.08.2012 16:00 23,8 C 48 % 1017,2 hPa 0,0 l/m N-NW 0,00 h 127 W/m 6,2 km/h (2 Bft)
28.08.2012 17:00 22,3 C 65 % 1017,5 hPa 0,0 l/m N 0,00 h 63 W/m 0,0 km/h (0 Bft)
28.08.2012 18:00 20,3 C 75 % 1017,7 hPa 0,0 l/m SO 0,00 h 26 W/m 2,4 km/h (1 Bft)
28.08.2012 19:00 19,6 C 79 % 1018,0 hPa 0,0 l/m S-SW 0,00 h 11 W/m 5,3 km/h (1 Bft)
28.08.2012 20:00 19,1 C 79 % 1018,5 hPa 0,0 l/m SO 0,00 h 0 W/m 5,9 km/h (2 Bft)
28.08.2012 21:00 18,3 C 79 % 1019,0 hPa 0,0 l/m S-SW 0,00 h 0 W/m 9,4 km/h (2 Bft)
28.08.2012 22:00 17,0 C 78 % 1019,2 hPa 0,0 l/m S-SW 0,00 h 0 W/m 6,8 km/h (2 Bft)
28.08.2012 23:00 16,3 C 79 % 1019,1 hPa 0,0 l/m N 0,00 h 0 W/m 2,9 km/h (1 Bft)
29.08.2012 00:00 14,7 C 85 % 1019,2 hPa 0,0 l/m N 0,00 h 0 W/m 0,4 km/h (0 Bft)
29.08.2012 01:00 14,6 C 87 % 1019,1 hPa 0,0 l/m N 0,00 h 0 W/m 1,7 km/h (1 Bft)
29.08.2012 02:00 14,6 C 86 % 1019,1 hPa 0,0 l/m N 0,00 h 0 W/m 1,1 km/h (0 Bft)
29.08.2012 03:00 13,4 C 91 % 1019,0 hPa 0,0 l/m N 0,00 h 0 W/m 0,5 km/h (0 Bft)
29.08.2012 04:00 12,3 C 94 % 1018,7 hPa 0,0 l/m N 0,00 h 0 W/m 0,1 km/h (0 Bft)
29.08.2012 05:00 12,0 C 95 % 1018,4 hPa 0,0 l/m N 0,00 h 0 W/m 0,1 km/h (0 Bft)
29.08.2012 06:00 11,8 C 96 % 1018,5 hPa 0,0 l/m N 0,00 h 7 W/m 0,1 km/h (0 Bft)
29.08.2012 07:00 12,3 C 96 % 1018,7 hPa 0,0 l/m N 0,00 h 54 W/m 0,3 km/h (0 Bft)
29.08.2012 08:00 14,9 C 88 % 1018,7 hPa 0,0 l/m S 0,92 h 221 W/m 0,1 km/h (0 Bft)
29.08.2012 09:00 17,4 C 81 % 1018,5 hPa 0,0 l/m S-SW 1,00 h 399 W/m 7,4 km/h (2 Bft)
29.08.2012 10:00 19,6 C 76 % 1018,3 hPa 0,0 l/m S-SW 1,00 h 578 W/m 8,1 km/h (2 Bft)
29.08.2012 11:00 21,8 C 67 % 1017,9 hPa 0,0 l/m S 1,00 h 685 W/m 8,3 km/h (2 Bft)
29.08.2012 12:00 23,5 C 61 % 1017,5 hPa 0,0 l/m S-SW 1,00 h 760 W/m 8,0 km/h (2 Bft)
29.08.2012 13:00 25,1 C 54 % 1017,0 hPa 0,0 l/m S 1,00 h 813 W/m 11,2 km/h (2 Bft)
29.08.2012 14:00 25,6 C 54 % 1016,3 hPa 0,0 l/m W 0,92 h 749 W/m 12,9 km/h (3 Bft)
29.08.2012 15:00 26,5 C 47 % 1015,9 hPa 0,0 l/m W-SW 1,00 h 683 W/m 14,3 km/h (3 Bft)
29.08.2012 16:00 26,6 C 46 % 1015,3 hPa 0,0 l/m W-SW 1,00 h 525 W/m 9,1 km/h (2 Bft)
29.08.2012 17:00 26,2 C 48 % 1014,6 hPa 0,0 l/m W-SW 1,00 h 368 W/m 4,9 km/h (1 Bft)
29.08.2012 18:00 24,8 C 60 % 1014,5 hPa 0,0 l/m N 0,67 h 171 W/m 0,4 km/h (0 Bft)
29.08.2012 19:00 21,4 C 72 % 1014,8 hPa 0,0 l/m N 0,00 h 21 W/m 0,0 km/h (0 Bft)
29.08.2012 20:00 19,4 C 79 % 1015,1 hPa 0,0 l/m N 0,00 h 0 W/m 0,0 km/h (0 Bft)
29.08.2012 21:00 20,5 C 71 % 1015,6 hPa 0,0 l/m W-SW 0,00 h 0 W/m 7,8 km/h (2 Bft)
29.08.2012 22:00 21,1 C 69 % 1016,3 hPa 0,0 l/m SW 0,00 h 0 W/m 13,0 km/h (3 Bft)
29.08.2012 23:00 19,9 C 74 % 1016,7 hPa 0,0 l/m SW 0,00 h 0 W/m 14,8 km/h (3 Bft)
30.08.2012 00:00 18,5 C 78 % 1016,2 hPa 0,0 l/m SW 0,00 h 0 W/m 6,0 km/h (2 Bft)
30.08.2012 01:00 17,3 C 81 % 1015,5 hPa 0,0 l/m S 0,00 h 0 W/m 2,8 km/h (1 Bft)
30.08.2012 02:00 16,4 C 84 % 1015,5 hPa 0,0 l/m N 0,00 h 0 W/m 1,5 km/h (1 Bft)
30.08.2012 03:00 16,0 C 85 % 1015,5 hPa 0,0 l/m N 0,00 h 0 W/m 1,7 km/h (1 Bft)
30.08.2012 04:00 16,3 C 84 % 1016,0 hPa 0,0 l/m SW 0,00 h 0 W/m 6,4 km/h (2 Bft)
30.08.2012 05:00 16,1 C 85 % 1015,7 hPa 0,0 l/m SW 0,00 h 0 W/m 8,4 km/h (2 Bft)
30.08.2012 06:00 15,9 C 88 % 1015,3 hPa 0,0 l/m S-SW 0,00 h 5 W/m 4,5 km/h (1 Bft)
30.08.2012 07:00 16,0 C 89 % 1015,2 hPa 0,0 l/m S-SW 0,00 h 18 W/m 4,8 km/h (1 Bft)
30.08.2012 08:00 16,3 C 89 % 1015,4 hPa 0,0 l/m S 0,00 h 28 W/m 3,2 km/h (1 Bft)
30.08.2012 09:00 16,6 C 90 % 1015,5 hPa 0,0 l/m N 0,00 h 60 W/m 1,6 km/h (1 Bft)
30.08.2012 10:00 17,5 C 87 % 1015,5 hPa 0,0 l/m S 0,00 h 153 W/m 0,9 km/h (0 Bft)
30.08.2012 11:00 19,7 C 79 % 1015,0 hPa 0,0 l/m S-SW 0,42 h 357 W/m 8,6 km/h (2 Bft)
30.08.2012 12:00 20,1 C 78 % 1014,5 hPa 0,0 l/m SW 0,08 h 238 W/m 7,9 km/h (2 Bft)
30.08.2012 13:00 19,8 C 84 % 1014,0 hPa 0,0 l/m S-SW 0,00 h 217 W/m 9,0 km/h (2 Bft)
30.08.2012 14:00 19,2 C 88 % 1013,9 hPa 1,0 l/m S-SW 0,00 h 98 W/m 6,0 km/h (2 Bft)
30.08.2012 15:00 18,3 C 94 % 1014,2 hPa 2,8 l/m W-SW 0,00 h 80 W/m 11,4 km/h (2 Bft)
30.08.2012 16:00 15,6 C 92 % 1014,9 hPa 3,2 l/m W-NW 0,00 h 47 W/m 16,1 km/h (3 Bft)
30.08.2012 17:00 15,8 C 96 % 1015,1 hPa 0,8 l/m W-NW 0,00 h 32 W/m 7,2 km/h (2 Bft)
30.08.2012 18:00 15,6 C 96 % 1015,6 hPa 2,2 l/m N-NW 0,00 h 17 W/m 9,5 km/h (2 Bft)
30.08.2012 19:00 14,8 C 96 % 1016,3 hPa 3,0 l/m N-NW 0,00 h 6 W/m 7,2 km/h (2 Bft)
30.08.2012 20:00 14,6 C 97 % 1016,8 hPa 1,0 l/m N 0,00 h 0 W/m 1,3 km/h (1 Bft)
30.08.2012 21:00 14,4 C 97 % 1017,1 hPa 0,4 l/m W-NW 0,00 h 0 W/m 4,7 km/h (1 Bft)
30.08.2012 22:00 13,9 C 98 % 1017,3 hPa 0,0 l/m W 0,00 h 0 W/m 6,5 km/h (2 Bft)
30.08.2012 23:00 13,6 C 98 % 1017,2 hPa 0,0 l/m W 0,00 h 0 W/m 5,5 km/h (1 Bft)
31.08.2012 00:00 13,6 C 98 % 1017,2 hPa 0,0 l/m W-SW 0,00 h 0 W/m 9,5 km/h (2 Bft)
31.08.2012 01:00 13,2 C 98 % 1017,0 hPa 1,4 l/m W 0,00 h 0 W/m 10,5 km/h (2 Bft)
31.08.2012 02:00 13,0 C 98 % 1016,9 hPa 0,0 l/m SW 0,00 h 0 W/m 8,2 km/h (2 Bft)
31.08.2012 03:00 12,9 C 98 % 1017,1 hPa 0,2 l/m SW 0,00 h 0 W/m 5,5 km/h (1 Bft)
31.08.2012 04:00 12,8 C 98 % 1016,9 hPa 0,0 l/m N 0,00 h 0 W/m 3,3 km/h (1 Bft)
31.08.2012 05:00 12,7 C 98 % 1016,6 hPa 0,8 l/m SW 0,00 h 0 W/m 4,7 km/h (1 Bft)
31.08.2012 06:00 12,7 C 98 % 1016,2 hPa 0,2 l/m SW 0,00 h 5 W/m 3,2 km/h (1 Bft)
31.08.2012 07:00 12,6 C 99 % 1016,2 hPa 0,2 l/m SW 0,00 h 24 W/m 5,5 km/h (1 Bft)
31.08.2012 08:00 12,6 C 99 % 1016,3 hPa 0,0 l/m SW 0,00 h 40 W/m 7,0 km/h (2 Bft)
31.08.2012 09:00 12,5 C 98 % 1016,3 hPa 0,0 l/m SW 0,00 h 74 W/m 9,6 km/h (2 Bft)
31.08.2012 10:00 11,7 C 97 % 1016,7 hPa 0,0 l/m S-SW 0,00 h 49 W/m 13,3 km/h (3 Bft)
31.08.2012 11:00 11,0 C 96 % 1017,4 hPa 2,2 l/m S-SW 0,00 h 30 W/m 12,9 km/h (3 Bft)
31.08.2012 12:00 10,8 C 98 % 1017,5 hPa 3,6 l/m W-SW 0,00 h 53 W/m 15,4 km/h (3 Bft)
31.08.2012 13:00 11,0 C 98 % 1017,6 hPa 1,4 l/m S-SW 0,00 h 103 W/m 10,5 km/h (2 Bft)
31.08.2012 14:00 11,8 C 97 % 1017,5 hPa 0,0 l/m SW 0,00 h 96 W/m 12,1 km/h (2 Bft)
31.08.2012 15:00 12,0 C 97 % 1017,5 hPa 0,4 l/m S-SW 0,00 h 130 W/m 14,5 km/h (3 Bft)
31.08.2012 16:00 12,4 C 95 % 1017,7 hPa 0,0 l/m S-SW 0,00 h 115 W/m 16,1 km/h (3 Bft)
31.08.2012 17:00 11,8 C 96 % 1017,9 hPa 3,0 l/m S-SW 0,00 h 40 W/m 16,4 km/h (3 Bft)
31.08.2012 18:00 11,3 C 97 % 1017,9 hPa 0,0 l/m SW 0,00 h 34 W/m 7,6 km/h (2 Bft)
31.08.2012 19:00 11,1 C 97 % 1017,9 hPa 0,0 l/m S-SW 0,00 h 15 W/m 7,5 km/h (2 Bft)
31.08.2012 20:00 10,9 C 98 % 1018,1 hPa 0,0 l/m S-SW 0,00 h 0 W/m 7,2 km/h (2 Bft)
31.08.2012 21:00 10,7 C 98 % 1018,3 hPa 0,0 l/m S-SW 0,00 h 0 W/m 6,4 km/h (2 Bft)
31.08.2012 22:00 10,8 C 99 % 1018,5 hPa 1,6 l/m SW 0,00 h 0 W/m 4,4 km/h (1 Bft)
31.08.2012 23:00 10,8 C 99 % 1018,6 hPa 2,0 l/m S-SW 0,00 h 0 W/m 3,3 km/h (1 Bft)
01.09.2012 00:00 10,8 C 99 % 1018,5 hPa 0,6 l/m N 0,00 h 0 W/m 0,8 km/h (0 Bft)
01.09.2012 01:00 10,7 C 99 % 1018,5 hPa 0,2 l/m N 0,00 h 0 W/m 1,1 km/h (0 Bft)
01.09.2012 02:00 10,6 C 99 % 1018,5 hPa 0,0 l/m N 0,00 h 0 W/m 2,5 km/h (1 Bft)
01.09.2012 03:00 10,3 C 99 % 1018,4 hPa 0,0 l/m S-SW 0,00 h 0 W/m 2,8 km/h (1 Bft)
01.09.2012 04:00 10,3 C 99 % 1018,5 hPa 0,6 l/m N 0,00 h 0 W/m 1,9 km/h (1 Bft)
01.09.2012 05:00 10,3 C 99 % 1018,5 hPa 2,6 l/m S 0,00 h 0 W/m 1,9 km/h (1 Bft)
01.09.2012 06:00 10,7 C 99 % 1018,5 hPa 0,0 l/m N-NO 0,00 h 0 W/m 8,7 km/h (2 Bft)
01.09.2012 07:00 11,0 C 99 % 1018,9 hPa 0,0 l/m NO 0,00 h 24 W/m 11,3 km/h (2 Bft)
01.09.2012 08:00 11,3 C 99 % 1019,3 hPa 0,2 l/m NO 0,00 h 55 W/m 15,4 km/h (3 Bft)
01.09.2012 09:00 11,6 C 96 % 1019,8 hPa 0,0 l/m NO 0,00 h 55 W/m 16,5 km/h (3 Bft)
01.09.2012 10:00 11,7 C 96 % 1020,2 hPa 0,0 l/m O-NO 0,00 h 91 W/m 15,4 km/h (3 Bft)
01.09.2012 11:00 12,6 C 92 % 1020,3 hPa 0,0 l/m O-NO 0,00 h 159 W/m 17,3 km/h (3 Bft)
01.09.2012 12:00 12,8 C 91 % 1020,2 hPa 0,0 l/m O-NO 0,00 h 115 W/m 20,0 km/h (4 Bft)
01.09.2012 13:00 12,5 C 93 % 1020,3 hPa 0,0 l/m O-NO 0,00 h 98 W/m 18,9 km/h (3 Bft)
01.09.2012 14:00 12,7 C 93 % 1020,3 hPa 0,2 l/m O-NO 0,00 h 95 W/m 19,4 km/h (3 Bft)
01.09.2012 15:00 12,8 C 94 % 1020,1 hPa 0,2 l/m NO 0,00 h 59 W/m 17,4 km/h (3 Bft)
01.09.2012 16:00 12,5 C 95 % 1020,2 hPa 0,6 l/m O-NO 0,00 h 36 W/m 17,8 km/h (3 Bft)
01.09.2012 17:00 12,5 C 96 % 1020,5 hPa 0,2 l/m NO 0,00 h 34 W/m 14,8 km/h (3 Bft)
01.09.2012 18:00 12,7 C 97 % 1020,5 hPa 2,6 l/m NO 0,00 h 14 W/m 14,8 km/h (3 Bft)
01.09.2012 19:00 12,6 C 97 % 1020,5 hPa 1,8 l/m O-NO 0,00 h 7 W/m 8,0 km/h (2 Bft)
01.09.2012 20:00 12,5 C 98 % 1020,8 hPa 0,2 l/m NO 0,00 h 0 W/m 12,1 km/h (2 Bft)
01.09.2012 21:00 12,5 C 97 % 1021,3 hPa 0,0 l/m O-NO 0,00 h 0 W/m 11,8 km/h (2 Bft)
01.09.2012 22:00 12,5 C 97 % 1021,3 hPa 0,0 l/m NO 0,00 h 0 W/m 10,5 km/h (2 Bft)
01.09.2012 23:00 12,5 C 97 % 1021,4 hPa 0,2 l/m NO 0,00 h 0 W/m 8,4 km/h (2 Bft)
02.09.2012 00:00 12,5 C 97 % 1021,4 hPa 0,6 l/m O-NO 0,00 h 0 W/m 7,2 km/h (2 Bft)
02.09.2012 01:00 12,6 C 98 % 1021,2 hPa 0,8 l/m O 0,00 h 0 W/m 6,7 km/h (2 Bft)
02.09.2012 02:00 12,6 C 98 % 1020,9 hPa 0,0 l/m O-NO 0,00 h 0 W/m 5,9 km/h (2 Bft)
02.09.2012 03:00 12,8 C 98 % 1020,7 hPa 0,0 l/m O-NO 0,00 h 0 W/m 7,8 km/h (2 Bft)
02.09.2012 04:00 12,7 C 98 % 1020,7 hPa 0,0 l/m NO 0,00 h 0 W/m 10,9 km/h (2 Bft)
02.09.2012 05:00 12,7 C 98 % 1020,6 hPa 0,0 l/m O-NO 0,00 h 0 W/m 9,1 km/h (2 Bft)
02.09.2012 06:00 12,6 C 98 % 1020,5 hPa 0,0 l/m O-NO 0,00 h 0 W/m 9,1 km/h (2 Bft)
02.09.2012 07:00 12,5 C 98 % 1020,7 hPa 0,4 l/m O-NO 0,00 h 7 W/m 8,4 km/h (2 Bft)
02.09.2012 08:00 12,5 C 99 % 1020,7 hPa 0,2 l/m O-NO 0,00 h 24 W/m 7,9 km/h (2 Bft)
02.09.2012 09:00 12,6 C 99 % 1020,7 hPa 0,2 l/m NO 0,00 h 36 W/m 9,8 km/h (2 Bft)
02.09.2012 10:00 12,6 C 99 % 1020,8 hPa 0,4 l/m NO 0,00 h 52 W/m 11,8 km/h (2 Bft)
02.09.2012 11:00 13,0 C 99 % 1021,0 hPa 0,2 l/m NO 0,00 h 72 W/m 11,4 km/h (2 Bft)
02.09.2012 12:00 13,2 C 99 % 1021,2 hPa 0,2 l/m O-NO 0,00 h 65 W/m 11,2 km/h (2 Bft)
02.09.2012 13:00 13,5 C 99 % 1021,1 hPa 0,0 l/m NO 0,00 h 99 W/m 11,4 km/h (2 Bft)
02.09.2012 14:00 14,3 C 98 % 1021,1 hPa 0,0 l/m NO 0,00 h 139 W/m 10,3 km/h (2 Bft)
02.09.2012 15:00 15,0 C 96 % 1021,0 hPa 0,0 l/m O-NO 0,00 h 162 W/m 11,8 km/h (2 Bft)
02.09.2012 16:00 15,5 C 93 % 1021,2 hPa 0,0 l/m O-NO 0,00 h 95 W/m 11,8 km/h (2 Bft)
02.09.2012 17:00 15,1 C 94 % 1021,2 hPa 0,2 l/m NO 0,00 h 39 W/m 11,0 km/h (2 Bft)
02.09.2012 18:00 14,7 C 95 % 1021,7 hPa 0,0 l/m NO 0,00 h 20 W/m 7,6 km/h (2 Bft)
02.09.2012 19:00 14,4 C 96 % 1021,8 hPa 0,2 l/m NO 0,00 h 13 W/m 5,2 km/h (1 Bft)
02.09.2012 20:00 14,2 C 96 % 1021,8 hPa 0,0 l/m N 0,00 h 0 W/m 2,1 km/h (1 Bft)
02.09.2012 21:00 13,6 C 96 % 1022,7 hPa 0,0 l/m NO 0,00 h 0 W/m 2,9 km/h (1 Bft)
02.09.2012 22:00 13,7 C 97 % 1023,0 hPa 0,0 l/m N-NO 0,00 h 0 W/m 5,5 km/h (1 Bft)
02.09.2012 23:00 13,6 C 98 % 1023,0 hPa 0,0 l/m N 0,00 h 0 W/m 1,5 km/h (1 Bft)
Min-Datum _ 28.08.12 27.08.12 30.08.12 - - - - 27.08.12
_ Min-Zeit 06:30 16:05 14:25 - - - - 00:00
Minimum _ 8,3 C 40 % 1013,8 hPa - - - - 0,0 km/h (0 Bft)
Max-Datum _ 29.08.12 27.08.12 02.09.12 31.08.12 - 27.08.12 29.08.12 30.08.12
_ Max-Zeit 16:15 05:35 22:20 12:05 - 07:50 13:20 16:05
Maximum _ 27,1 C 100 % 1023,1 hPa 3,6 l/m - 0,08 h 851 W/m 37,0 km/h
W-NW (5 Bft)
Durchschnitt _ 15,0 C 86 % 1018,3 hPa #45,0 l/m O-NO #29:25 h 216 W/m 7,3 km/h (2 Bft)